Meteo Giornale » Osservazioni meteo Italia » Lamezia Terme

ore: 15:50 - Osservazioni Meteo Lamezia Terme
Lat. 38° 54' N Lon. 16° 15' E Alt. 15 metri s.l.m.

nuvoloso Europe/Rome

22 °C

Nuvoloso

Temp. 24 Ore

13 °C

23 °C

Ovest

16.7 Km/h

Dew point 17 °C

Umidità 73 %

Visibilità  10 Km

Il sole sorge alle ore 05:31

Il sole tramonta alle ore 20:13

Data e Ora Cielo e Fenomeni T °C DP °C Um. % Pres. hPa Vis. km Vento km/h
Oggi h: 15:50 nuvoloso Nuvoloso 22 17 73 1018 10 O 16.7
Oggi h: 14:50 nuvoloso Nuvoloso 22 17 73 1018 10 O 20.3
Oggi h: 13:50 poco_nuvoloso Poco Nuvoloso 23 17 68 1019 10 O/SO 18.5
Oggi h: 12:50 poco_nuvoloso Poco Nuvoloso 22 16 68 1019 10 O 20.3
Oggi h: 11:50 poco_nuvoloso Poco Nuvoloso 22 17 73 1019 10 O 20.3
Oggi h: 10:50 poco_nuvoloso Poco Nuvoloso 22 16 68 1019 10 O 16.7
Oggi h: 09:50 poco_nuvoloso Poco Nuvoloso 21 16 73 1019 10 O/SO 14.8
Oggi h: 08:50 poco_nuvoloso Poco Nuvoloso 21 15 68 1019 10 S/SO 11.1
Oggi h: 07:50 poco_nuvoloso Poco Nuvoloso 20 15 72 1019 10 N 3.7
Oggi h: 06:50 nuvoloso Nuvoloso 16 14 87 1019 10 N 1.8
Oggi h: 05:50 poco_nuvoloso Poco Nuvoloso 13 12 93 1018 10 N 3.7
Oggi h: 04:50 nuvoloso Nuvoloso 14 12 87 1018 10 N 0
Oggi h: 03:50 nuvoloso Nuvoloso 15 13 87 1018 10 N 3.7
Oggi h: 02:50 nuvoloso Nuvoloso 15 13 87 1018 10 N 1.8
Oggi h: 01:50 nuvoloso Nuvoloso 15 13 87 1018 10 N 3.7
Oggi h: 00:50 nuvoloso Nuvoloso 17 13 77 1019 10 N 3.7
Ieri h: 23:50 nuvoloso Nuvoloso 18 14 77 1019 10 N 0
Ieri h: 22:50 nuvoloso Nuvoloso 18 14 77 1018 10 N 3.7
Ieri h: 21:50 poco_nuvoloso Poco Nuvoloso 19 16 82 1018 10 SO 7.4
Ieri h: 20:50 molto_nuvoloso Molto Nuvoloso 20 16 77 1017 10 O/SO 11.1
Ieri h: 19:50 nuvoloso Nuvoloso 20 15 72 1017 10 O/SO 13
Ieri h: 18:50 poco_nuvoloso Poco Nuvoloso 21 15 68 1017 10 SO 13
Ieri h: 17:50 poco_nuvoloso Poco Nuvoloso 22 14 60 1017 10 O/SO 18.5
Ieri h: 16:50 poco_nuvoloso Poco Nuvoloso 22 14 60 1017 10 O/SO 25.9